sensor_id;sensor_type;location;lat;lon;timestamp;pressure;altitude;pressure_sealevel;temperature;humidity
73383;BME280;61600;48.126;11.542;2022-08-25T00:01:23;95768.94;;;19.62;68.79
73383;BME280;61600;48.126;11.542;2022-08-25T00:03:49;95768.94;;;19.62;68.84
73383;BME280;61600;48.126;11.542;2022-08-25T00:06:16;95765.72;;;19.60;69.02
73383;BME280;61600;48.126;11.542;2022-08-25T00:08:42;95763.41;;;19.62;69.36
73383;BME280;61600;48.126;11.542;2022-08-25T00:11:12;95766.03;;;19.58;69.47
73383;BME280;61600;48.126;11.542;2022-08-25T00:13:41;95761.66;;;19.57;69.34
73383;BME280;61600;48.126;11.542;2022-08-25T00:16:12;95754.75;;;19.51;69.70
73383;BME280;61600;48.126;11.542;2022-08-25T00:18:39;95753.47;;;19.49;69.79
73383;BME280;61600;48.126;11.542;2022-08-25T00:21:06;95756.69;;;19.51;69.94
73383;BME280;61600;48.126;11.542;2022-08-25T00:23:32;95758.09;;;19.57;69.76
73383;BME280;61600;48.126;11.542;2022-08-25T00:25:58;95757.06;;;19.49;70.03
73383;BME280;61600;48.126;11.542;2022-08-25T00:28:24;95760.81;;;19.44;70.09
73383;BME280;61600;48.126;11.542;2022-08-25T00:30:49;95754.66;;;19.39;70.42
73383;BME280;61600;48.126;11.542;2022-08-25T00:33:16;95758.53;;;19.47;70.04
73383;BME280;61600;48.126;11.542;2022-08-25T00:35:42;95763.75;;;19.39;70.19
73383;BME280;61600;48.126;11.542;2022-08-25T00:38:10;95747.47;;;19.47;70.00
73383;BME280;61600;48.126;11.542;2022-08-25T00:40:38;95751.13;;;19.38;70.57
73383;BME280;61600;48.126;11.542;2022-08-25T00:43:04;95755.00;;;19.37;70.71
73383;BME280;61600;48.126;11.542;2022-08-25T00:45:31;95758.09;;;19.36;70.91
73383;BME280;61600;48.126;11.542;2022-08-25T00:47:57;95750.03;;;19.31;71.19
73383;BME280;61600;48.126;11.542;2022-08-25T00:50:23;95748.75;;;19.28;71.47
73383;BME280;61600;48.126;11.542;2022-08-25T00:52:55;95755.44;;;19.27;71.38
73383;BME280;61600;48.126;11.542;2022-08-25T00:55:41;95743.03;;;19.33;71.36
73383;BME280;61600;48.126;11.542;2022-08-25T00:58:14;95741.97;;;19.26;71.40
73383;BME280;61600;48.126;11.542;2022-08-25T01:00:44;95737.59;;;19.25;71.90
73383;BME280;61600;48.126;11.542;2022-08-25T01:03:11;95739.28;;;19.17;71.56
73383;BME280;61600;48.126;11.542;2022-08-25T01:05:37;95737.31;;;19.18;71.94
73383;BME280;61600;48.126;11.542;2022-08-25T01:08:05;95737.88;;;19.11;72.48
73383;BME280;61600;48.126;11.542;2022-08-25T01:10:34;95738.50;;;18.96;73.28
73383;BME280;61600;48.126;11.542;2022-08-25T01:13:05;95742.44;;;19.07;72.83
73383;BME280;61600;48.126;11.542;2022-08-25T01:15:33;95740.03;;;19.06;72.97
73383;BME280;61600;48.126;11.542;2022-08-25T01:17:59;95736.16;;;19.07;73.13
73383;BME280;61600;48.126;11.542;2022-08-25T01:20:28;95731.00;;;18.96;73.32
73383;BME280;61600;48.126;11.542;2022-08-25T01:22:54;95729.69;;;19.03;73.13
73383;BME280;61600;48.126;11.542;2022-08-25T01:28:21;95741.66;;;19.07;73.57
73383;BME280;61600;48.126;11.542;2022-08-25T01:30:48;95734.78;;;18.92;73.45
73383;BME280;61600;48.126;11.542;2022-08-25T01:33:15;95741.63;;;18.86;73.74
73383;BME280;61600;48.126;11.542;2022-08-25T01:35:41;95737.06;;;18.90;73.81
73383;BME280;61600;48.126;11.542;2022-08-25T01:38:07;95737.47;;;18.80;74.26
73383;BME280;61600;48.126;11.542;2022-08-25T01:40:34;95739.63;;;18.74;74.68
73383;BME280;61600;48.126;11.542;2022-08-25T01:45:37;95738.13;;;18.77;74.27
73383;BME280;61600;48.126;11.542;2022-08-25T01:48:03;95739.09;;;18.81;74.17
73383;BME280;61600;48.126;11.542;2022-08-25T01:50:29;95734.78;;;18.71;74.83
73383;BME280;61600;48.126;11.542;2022-08-25T01:53:12;95732.81;;;18.72;74.63
73383;BME280;61600;48.126;11.542;2022-08-25T01:55:41;95724.25;;;18.65;74.58
73383;BME280;61600;48.126;11.542;2022-08-25T01:58:21;95722.47;;;18.69;74.31
73383;BME280;61600;48.126;11.542;2022-08-25T02:00:48;95726.03;;;18.69;74.28
73383;BME280;61600;48.126;11.542;2022-08-25T02:03:15;95731.41;;;18.66;74.68
73383;BME280;61600;48.126;11.542;2022-08-25T02:05:42;95724.47;;;18.60;74.90
73383;BME280;61600;48.126;11.542;2022-08-25T02:08:07;95724.03;;;18.58;74.88
73383;BME280;61600;48.126;11.542;2022-08-25T02:10:33;95726.63;;;18.45;75.41
73383;BME280;61600;48.126;11.542;2022-08-25T02:13:00;95722.91;;;18.50;75.09
73383;BME280;61600;48.126;11.542;2022-08-25T02:15:25;95729.38;;;18.54;75.21
73383;BME280;61600;48.126;11.542;2022-08-25T02:17:51;95740.88;;;18.56;74.53
73383;BME280;61600;48.126;11.542;2022-08-25T02:20:17;95726.78;;;18.49;75.05
73383;BME280;61600;48.126;11.542;2022-08-25T02:22:43;95726.63;;;18.45;75.18
73383;BME280;61600;48.126;11.542;2022-08-25T02:25:09;95731.41;;;18.36;75.77
73383;BME280;61600;48.126;11.542;2022-08-25T02:27:36;95726.81;;;18.40;75.50
73383;BME280;61600;48.126;11.542;2022-08-25T02:30:04;95726.06;;;18.31;76.08
73383;BME280;61600;48.126;11.542;2022-08-25T02:32:29;95732.09;;;18.25;76.75
73383;BME280;61600;48.126;11.542;2022-08-25T02:34:55;95732.28;;;18.20;77.00
73383;BME280;61600;48.126;11.542;2022-08-25T02:37:21;95726.31;;;18.18;76.92
73383;BME280;61600;48.126;11.542;2022-08-25T02:39:47;95724.81;;;18.20;76.82
73383;BME280;61600;48.126;11.542;2022-08-25T02:42:13;95727.13;;;18.18;76.77
73383;BME280;61600;48.126;11.542;2022-08-25T02:44:39;95726.69;;;18.08;77.01
73383;BME280;61600;48.126;11.542;2022-08-25T02:47:05;95722.16;;;18.03;77.09
73383;BME280;61600;48.126;11.542;2022-08-25T02:49:31;95726.81;;;18.11;76.80
73383;BME280;61600;48.126;11.542;2022-08-25T02:51:58;95724.38;;;18.10;76.92
73383;BME280;61600;48.126;11.542;2022-08-25T02:54:26;95722.13;;;18.12;77.05
73383;BME280;61600;48.126;11.542;2022-08-25T02:56:52;95718.06;;;18.09;76.81
73383;BME280;61600;48.126;11.542;2022-08-25T02:59:17;95713.59;;;18.05;77.05
73383;BME280;61600;48.126;11.542;2022-08-25T03:01:43;95714.22;;;18.02;77.19
73383;BME280;61600;48.126;11.542;2022-08-25T03:04:09;95703.22;;;18.02;77.17
73383;BME280;61600;48.126;11.542;2022-08-25T03:06:35;95704.69;;;17.99;77.31
73383;BME280;61600;48.126;11.542;2022-08-25T03:09:00;95709.22;;;17.95;77.13
73383;BME280;61600;48.126;11.542;2022-08-25T03:11:26;95718.94;;;18.01;77.23
73383;BME280;61600;48.126;11.542;2022-08-25T03:13:53;95720.09;;;17.91;77.61
73383;BME280;61600;48.126;11.542;2022-08-25T03:16:19;95719.28;;;17.91;77.71
73383;BME280;61600;48.126;11.542;2022-08-25T03:18:45;95711.22;;;17.86;77.83
73383;BME280;61600;48.126;11.542;2022-08-25T03:21:11;95710.25;;;17.90;77.79
73383;BME280;61600;48.126;11.542;2022-08-25T03:23:39;95709.59;;;17.85;78.01
73383;BME280;61600;48.126;11.542;2022-08-25T03:26:05;95715.44;;;17.83;77.69
73383;BME280;61600;48.126;11.542;2022-08-25T03:28:50;95716.22;;;17.84;77.90
73383;BME280;61600;48.126;11.542;2022-08-25T03:31:15;95712.66;;;17.92;77.53
73383;BME280;61600;48.126;11.542;2022-08-25T03:33:41;95708.91;;;17.96;77.34
73383;BME280;61600;48.126;11.542;2022-08-25T03:36:08;95700.81;;;17.91;77.30
73383;BME280;61600;48.126;11.542;2022-08-25T03:38:36;95703.56;;;18.00;77.40
73383;BME280;61600;48.126;11.542;2022-08-25T03:41:18;95698.72;;;17.97;77.30
73383;BME280;61600;48.126;11.542;2022-08-25T03:43:47;95698.56;;;17.93;77.76
73383;BME280;61600;48.126;11.542;2022-08-25T03:46:25;95700.81;;;17.91;77.94
73383;BME280;61600;48.126;11.542;2022-08-25T03:48:52;95703.13;;;17.89;77.27
73383;BME280;61600;48.126;11.542;2022-08-25T03:51:25;95698.44;;;17.81;77.83
73383;BME280;61600;48.126;11.542;2022-08-25T03:53:52;95696.81;;;17.89;77.51
73383;BME280;61600;48.126;11.542;2022-08-25T03:56:18;95698.13;;;17.83;77.83
73383;BME280;61600;48.126;11.542;2022-08-25T03:58:44;95698.78;;;17.80;78.12
73383;BME280;61600;48.126;11.542;2022-08-25T04:01:10;95704.00;;;17.73;78.37
73383;BME280;61600;48.126;11.542;2022-08-25T04:03:36;95694.72;;;17.77;78.09
73383;BME280;61600;48.126;11.542;2022-08-25T04:06:04;95696.88;;;17.72;78.33
73383;BME280;61600;48.126;11.542;2022-08-25T04:08:30;95704.00;;;17.64;78.64
73383;BME280;61600;48.126;11.542;2022-08-25T04:10:56;95702.53;;;17.67;78.30
73383;BME280;61600;48.126;11.542;2022-08-25T04:13:21;95703.69;;;17.66;78.28
73383;BME280;61600;48.126;11.542;2022-08-25T04:15:47;95702.38;;;17.72;78.56
73383;BME280;61600;48.126;11.542;2022-08-25T04:18:13;95712.06;;;17.78;78.10
73383;BME280;61600;48.126;11.542;2022-08-25T04:20:40;95716.91;;;17.81;77.97
73383;BME280;61600;48.126;11.542;2022-08-25T04:23:07;95712.41;;;17.76;78.08
73383;BME280;61600;48.126;11.542;2022-08-25T04:25:33;95711.38;;;17.81;77.90
73383;BME280;61600;48.126;11.542;2022-08-25T04:27:59;95710.44;;;17.77;77.99
73383;BME280;61600;48.126;11.542;2022-08-25T04:30:25;95709.34;;;17.69;78.49
73383;BME280;61600;48.126;11.542;2022-08-25T04:32:50;95705.13;;;17.63;78.29
73383;BME280;61600;48.126;11.542;2022-08-25T04:35:16;95706.75;;;17.73;78.64
73383;BME280;61600;48.126;11.542;2022-08-25T04:37:42;95702.81;;;17.82;78.22
73383;BME280;61600;48.126;11.542;2022-08-25T04:40:08;95711.44;;;17.72;78.38
73383;BME280;61600;48.126;11.542;2022-08-25T04:42:34;95710.25;;;17.82;78.18
73383;BME280;61600;48.126;11.542;2022-08-25T04:45:00;95712.19;;;17.81;78.08
73383;BME280;61600;48.126;11.542;2022-08-25T04:47:28;95706.69;;;17.90;77.85
73383;BME280;61600;48.126;11.542;2022-08-25T04:49:54;95710.03;;;17.95;77.82
73383;BME280;61600;48.126;11.542;2022-08-25T04:52:20;95708.41;;;18.03;77.43
73383;BME280;61600;48.126;11.542;2022-08-25T04:54:46;95702.38;;;18.10;76.96
73383;BME280;61600;48.126;11.542;2022-08-25T04:57:12;95700.88;;;18.12;76.95
73383;BME280;61600;48.126;11.542;2022-08-25T04:59:38;95703.94;;;18.19;76.27
73383;BME280;61600;48.126;11.542;2022-08-25T05:02:04;95707.84;;;18.18;76.25
73383;BME280;61600;48.126;11.542;2022-08-25T05:04:33;95702.38;;;18.10;76.75
73383;BME280;61600;48.126;11.542;2022-08-25T05:07:00;95702.13;;;18.23;75.82
73383;BME280;61600;48.126;11.542;2022-08-25T05:09:26;95696.59;;;18.32;75.71
73383;BME280;61600;48.126;11.542;2022-08-25T05:11:52;95698.50;;;18.40;75.08
73383;BME280;61600;48.126;11.542;2022-08-25T05:14:18;95701.38;;;18.43;74.76
73383;BME280;61600;48.126;11.542;2022-08-25T05:16:47;95700.03;;;18.50;74.46
73383;BME280;61600;48.126;11.542;2022-08-25T05:19:13;95699.41;;;18.53;74.24
73383;BME280;61600;48.126;11.542;2022-08-25T05:21:38;95706.22;;;18.46;74.48
73383;BME280;61600;48.126;11.542;2022-08-25T05:24:04;95700.72;;;18.46;74.44
73383;BME280;61600;48.126;11.542;2022-08-25T05:26:32;95696.19;;;18.51;74.46
73383;BME280;61600;48.126;11.542;2022-08-25T05:29:00;95705.75;;;18.44;74.52
73383;BME280;61600;48.126;11.542;2022-08-25T05:31:32;95699.75;;;18.42;74.46
73383;BME280;61600;48.126;11.542;2022-08-25T05:34:05;95711.06;;;18.50;73.76
73383;BME280;61600;48.126;11.542;2022-08-25T05:36:31;95701.50;;;18.56;73.71
73383;BME280;61600;48.126;11.542;2022-08-25T05:38:58;95694.63;;;18.62;73.05
73383;BME280;61600;48.126;11.542;2022-08-25T05:41:26;95690.19;;;18.69;72.64
73383;BME280;61600;48.126;11.542;2022-08-25T05:43:53;95697.78;;;18.72;72.70
73383;BME280;61600;48.126;11.542;2022-08-25T05:46:19;95700.56;;;18.72;72.33
73383;BME280;61600;48.126;11.542;2022-08-25T05:48:46;95685.91;;;18.80;72.57
73383;BME280;61600;48.126;11.542;2022-08-25T05:51:13;95689.47;;;18.81;72.14
73383;BME280;61600;48.126;11.542;2022-08-25T05:53:42;95690.16;;;18.78;72.61
73383;BME280;61600;48.126;11.542;2022-08-25T05:56:11;95689.53;;;18.72;72.86
73383;BME280;61600;48.126;11.542;2022-08-25T05:58:38;95697.38;;;18.82;72.34
73383;BME280;61600;48.126;11.542;2022-08-25T06:01:05;95691.22;;;18.85;72.48
73383;BME280;61600;48.126;11.542;2022-08-25T06:03:52;95696.06;;;18.88;73.00
73383;BME280;61600;48.126;11.542;2022-08-25T06:06:21;95699.00;;;18.83;72.79
73383;BME280;61600;48.126;11.542;2022-08-25T06:08:49;95687.25;;;18.95;72.59
73383;BME280;61600;48.126;11.542;2022-08-25T06:11:15;95694.97;;;19.02;72.16
73383;BME280;61600;48.126;11.542;2022-08-25T06:13:41;95684.00;;;18.93;72.81
73383;BME280;61600;48.126;11.542;2022-08-25T06:16:09;95680.66;;;18.87;72.94
73383;BME280;61600;48.126;11.542;2022-08-25T06:18:35;95678.50;;;18.93;72.49
73383;BME280;61600;48.126;11.542;2022-08-25T06:21:13;95678.56;;;19.05;72.14
73383;BME280;61600;48.126;11.542;2022-08-25T06:23:39;95673.47;;;18.95;72.61
73383;BME280;61600;48.126;11.542;2022-08-25T06:26:12;95680.38;;;19.01;72.45
73383;BME280;61600;48.126;11.542;2022-08-25T06:28:38;95691.34;;;19.10;72.46
73383;BME280;61600;48.126;11.542;2022-08-25T06:31:03;95685.19;;;19.25;71.46
73383;BME280;61600;48.126;11.542;2022-08-25T06:33:30;95677.97;;;19.32;71.32
73383;BME280;61600;48.126;11.542;2022-08-25T06:36:02;95687.94;;;19.25;71.06
73383;BME280;61600;48.126;11.542;2022-08-25T06:38:32;95679.84;;;19.40;70.21
73383;BME280;61600;48.126;11.542;2022-08-25T06:41:01;95676.69;;;19.51;69.58
73383;BME280;61600;48.126;11.542;2022-08-25T06:43:27;95687.72;;;19.51;69.81
73383;BME280;61600;48.126;11.542;2022-08-25T06:45:53;95682.19;;;19.51;69.63
73383;BME280;61600;48.126;11.542;2022-08-25T06:48:19;95683.91;;;19.43;69.99
73383;BME280;61600;48.126;11.542;2022-08-25T06:50:44;95694.50;;;19.53;70.07
73383;BME280;61600;48.126;11.542;2022-08-25T06:53:10;95688.09;;;19.61;69.58
73383;BME280;61600;48.126;11.542;2022-08-25T06:55:36;95692.19;;;19.43;70.15
73383;BME280;61600;48.126;11.542;2022-08-25T06:58:03;95693.19;;;19.38;70.48
73383;BME280;61600;48.126;11.542;2022-08-25T07:00:29;95689.66;;;19.50;70.03
73383;BME280;61600;48.126;11.542;2022-08-25T07:02:55;95693.03;;;19.68;69.60
73383;BME280;61600;48.126;11.542;2022-08-25T07:05:24;95693.91;;;19.80;68.68
73383;BME280;61600;48.126;11.542;2022-08-25T07:07:53;95686.41;;;19.93;67.90
73383;BME280;61600;48.126;11.542;2022-08-25T07:10:19;95692.63;;;19.90;68.19
73383;BME280;61600;48.126;11.542;2022-08-25T07:12:45;95698.63;;;20.04;67.84
73383;BME280;61600;48.126;11.542;2022-08-25T07:15:11;95689.31;;;20.09;66.99
73383;BME280;61600;48.126;11.542;2022-08-25T07:17:37;95691.03;;;20.13;67.20
73383;BME280;61600;48.126;11.542;2022-08-25T07:20:03;95679.88;;;20.22;66.54
73383;BME280;61600;48.126;11.542;2022-08-25T07:22:29;95686.00;;;20.27;67.02
73383;BME280;61600;48.126;11.542;2022-08-25T07:24:54;95693.16;;;20.28;66.78
73383;BME280;61600;48.126;11.542;2022-08-25T07:27:20;95681.84;;;20.21;66.87
73383;BME280;61600;48.126;11.542;2022-08-25T07:29:50;95678.03;;;20.26;66.92
73383;BME280;61600;48.126;11.542;2022-08-25T07:32:15;95680.38;;;20.36;66.76
73383;BME280;61600;48.126;11.542;2022-08-25T07:34:41;95687.63;;;20.40;66.82
73383;BME280;61600;48.126;11.542;2022-08-25T07:37:25;95683.47;;;20.47;66.68
73383;BME280;61600;48.126;11.542;2022-08-25T07:39:51;95686.78;;;20.52;66.20
73383;BME280;61600;48.126;11.542;2022-08-25T07:42:16;95678.50;;;20.52;66.84
73383;BME280;61600;48.126;11.542;2022-08-25T07:44:42;95677.47;;;20.57;66.63
73383;BME280;61600;48.126;11.542;2022-08-25T07:47:08;95684.03;;;20.64;66.55
73383;BME280;61600;48.126;11.542;2022-08-25T07:49:33;95671.34;;;20.63;65.79
73383;BME280;61600;48.126;11.542;2022-08-25T07:51:59;95674.53;;;20.77;65.60
73383;BME280;61600;48.126;11.542;2022-08-25T07:54:25;95683.75;;;20.81;65.90
73383;BME280;61600;48.126;11.542;2022-08-25T07:56:52;95673.91;;;20.96;64.83
73383;BME280;61600;48.126;11.542;2022-08-25T07:59:18;95678.75;;;20.99;64.81
73383;BME280;61600;48.126;11.542;2022-08-25T08:01:44;95682.41;;;21.03;64.85
73383;BME280;61600;48.126;11.542;2022-08-25T08:04:10;95683.78;;;21.09;64.93
73383;BME280;61600;48.126;11.542;2022-08-25T08:06:38;95689.53;;;21.16;64.95
73383;BME280;61600;48.126;11.542;2022-08-25T08:09:04;95687.69;;;21.20;64.77
73383;BME280;61600;48.126;11.542;2022-08-25T08:11:33;95691.66;;;21.35;64.41
73383;BME280;61600;48.126;11.542;2022-08-25T08:14:00;95690.34;;;21.45;64.18
73383;BME280;61600;48.126;11.542;2022-08-25T08:16:28;95684.38;;;21.42;63.66
73383;BME280;61600;48.126;11.542;2022-08-25T08:18:56;95694.38;;;21.47;64.37
73383;BME280;61600;48.126;11.542;2022-08-25T08:21:25;95684.19;;;21.51;64.37
73383;BME280;61600;48.126;11.542;2022-08-25T08:23:52;95687.78;;;21.52;64.52
73383;BME280;61600;48.126;11.542;2022-08-25T08:26:19;95677.34;;;21.61;64.78
73383;BME280;61600;48.126;11.542;2022-08-25T08:28:45;95689.84;;;21.55;64.38
73383;BME280;61600;48.126;11.542;2022-08-25T08:31:12;95676.84;;;21.71;64.03
73383;BME280;61600;48.126;11.542;2022-08-25T08:33:38;95683.25;;;21.75;62.68
73383;BME280;61600;48.126;11.542;2022-08-25T08:36:06;95680.94;;;21.77;63.32
73383;BME280;61600;48.126;11.542;2022-08-25T08:38:34;95684.72;;;21.84;63.30
73383;BME280;61600;48.126;11.542;2022-08-25T08:44:53;95674.13;;;22.02;62.41
73383;BME280;61600;48.126;11.542;2022-08-25T08:52:39;95664.91;;;22.29;61.54
73383;BME280;61600;48.126;11.542;2022-08-25T08:55:17;95665.56;;;22.42;61.09
73383;BME280;61600;48.126;11.542;2022-08-25T08:57:48;95665.03;;;22.52;60.96
73383;BME280;61600;48.126;11.542;2022-08-25T09:00:16;95655.38;;;22.46;61.28
73383;BME280;61600;48.126;11.542;2022-08-25T09:05:20;95652.31;;;22.67;60.85
73383;BME280;61600;48.126;11.542;2022-08-25T09:07:54;95651.75;;;22.77;60.40
73383;BME280;61600;48.126;11.542;2022-08-25T09:10:22;95640.66;;;22.77;60.27
73383;BME280;61600;48.126;11.542;2022-08-25T09:13:05;95648.25;;;22.80;60.48
73383;BME280;61600;48.126;11.542;2022-08-25T09:18:51;95653.00;;;22.99;60.13
73383;BME280;61600;48.126;11.542;2022-08-25T09:26:46;95653.38;;;23.16;59.21
73383;BME280;61600;48.126;11.542;2022-08-25T09:29:22;95653.75;;;23.15;59.77
73383;BME280;61600;48.126;11.542;2022-08-25T09:31:49;95644.78;;;23.21;60.09
73383;BME280;61600;48.126;11.542;2022-08-25T09:34:21;95646.88;;;23.28;59.56
73383;BME280;61600;48.126;11.542;2022-08-25T09:36:48;95653.00;;;23.37;58.89
73383;BME280;61600;48.126;11.542;2022-08-25T09:39:18;95650.03;;;23.46;58.09
73383;BME280;61600;48.126;11.542;2022-08-25T09:44:22;95640.75;;;23.57;57.55
73383;BME280;61600;48.126;11.542;2022-08-25T09:49:19;95642.72;;;23.79;57.40
73383;BME280;61600;48.126;11.542;2022-08-25T09:51:45;95637.00;;;23.92;56.66
73383;BME280;61600;48.126;11.542;2022-08-25T09:56:55;95638.47;;;24.08;58.05
73383;BME280;61600;48.126;11.542;2022-08-25T09:59:27;95635.41;;;24.13;60.74
73383;BME280;61600;48.126;11.542;2022-08-25T10:01:58;95619.22;;;24.19;58.67
73383;BME280;61600;48.126;11.542;2022-08-25T10:04:32;95621.41;;;24.32;57.62
73383;BME280;61600;48.126;11.542;2022-08-25T10:06:59;95625.41;;;24.35;57.68
73383;BME280;61600;48.126;11.542;2022-08-25T10:09:38;95618.91;;;24.50;56.78
73383;BME280;61600;48.126;11.542;2022-08-25T10:12:20;95616.28;;;24.61;57.10
73383;BME280;61600;48.126;11.542;2022-08-25T10:14:46;95613.22;;;24.69;56.74
73383;BME280;61600;48.126;11.542;2022-08-25T10:17:32;95604.81;;;24.92;55.56
73383;BME280;61600;48.126;11.542;2022-08-25T10:22:37;95604.59;;;25.41;52.88
73383;BME280;61600;48.126;11.542;2022-08-25T10:25:05;95602.25;;;25.43;53.22
73383;BME280;61600;48.126;11.542;2022-08-25T10:27:41;95601.22;;;25.58;52.63
73383;BME280;61600;48.126;11.542;2022-08-25T10:49:12;95589.25;;;26.42;50.18
73383;BME280;61600;48.126;11.542;2022-08-25T10:57:20;95572.00;;;26.91;49.76
73383;BME280;61600;48.126;11.542;2022-08-25T11:00:09;95576.06;;;27.04;49.82
73383;BME280;61600;48.126;11.542;2022-08-25T11:02:48;95573.25;;;27.04;49.25
73383;BME280;61600;48.126;11.542;2022-08-25T11:05:37;95568.13;;;27.24;48.84
73383;BME280;61600;48.126;11.542;2022-08-25T11:08:17;95564.09;;;27.04;48.33
73383;BME280;61600;48.126;11.542;2022-08-25T11:14:04;95570.09;;;27.16;48.11
73383;BME280;61600;48.126;11.542;2022-08-25T11:16:17;95566.25;;;27.46;47.91
73383;BME280;61600;48.126;11.542;2022-08-25T11:18:56;95568.69;;;27.65;47.23
73383;BME280;61600;48.126;11.542;2022-08-25T11:22:05;95569.47;;;27.55;44.50
73383;BME280;61600;48.126;11.542;2022-08-25T11:30:17;95562.34;;;28.10;45.53
73383;BME280;61600;48.126;11.542;2022-08-25T11:32:46;95563.50;;;28.45;44.10
73383;BME280;61600;48.126;11.542;2022-08-25T11:35:16;95552.69;;;28.57;42.91
73383;BME280;61600;48.126;11.542;2022-08-25T11:43:26;95541.44;;;28.82;42.53
73383;BME280;61600;48.126;11.542;2022-08-25T11:51:40;95537.31;;;29.18;42.35
73383;BME280;61600;48.126;11.542;2022-08-25T11:54:22;95528.84;;;29.36;42.89
73383;BME280;61600;48.126;11.542;2022-08-25T11:57:36;95536.47;;;29.25;42.57
73383;BME280;61600;48.126;11.542;2022-08-25T12:02:33;95529.59;;;29.44;42.81
73383;BME280;61600;48.126;11.542;2022-08-25T12:05:11;95530.59;;;29.71;42.62
73383;BME280;61600;48.126;11.542;2022-08-25T12:08:03;95524.25;;;29.60;42.49
73383;BME280;61600;48.126;11.542;2022-08-25T12:10:52;95536.78;;;29.48;41.68
73383;BME280;61600;48.126;11.542;2022-08-25T12:13:50;95536.94;;;29.86;41.39
73383;BME280;61600;48.126;11.542;2022-08-25T12:21:52;95532.44;;;29.95;40.68
73383;BME280;61600;48.126;11.542;2022-08-25T12:24:56;95535.69;;;30.38;40.07
73383;BME280;61600;48.126;11.542;2022-08-25T12:27:57;95527.25;;;30.79;38.98
73383;BME280;61600;48.126;11.542;2022-08-25T12:30:48;95534.88;;;31.16;38.29
73383;BME280;61600;48.126;11.542;2022-08-25T12:34:10;95533.84;;;31.33;37.92
73383;BME280;61600;48.126;11.542;2022-08-25T12:36:28;95531.34;;;31.39;37.06
73383;BME280;61600;48.126;11.542;2022-08-25T12:39:08;95534.91;;;31.73;36.75
73383;BME280;61600;48.126;11.542;2022-08-25T12:41:52;95531.72;;;31.71;36.66
73383;BME280;61600;48.126;11.542;2022-08-25T12:44:43;95538.47;;;31.77;37.23
73383;BME280;61600;48.126;11.542;2022-08-25T12:49:49;95521.72;;;32.43;36.30
73383;BME280;61600;48.126;11.542;2022-08-25T12:52:21;95510.72;;;32.29;35.46
73383;BME280;61600;48.126;11.542;2022-08-25T12:54:56;95514.66;;;32.78;35.51
73383;BME280;61600;48.126;11.542;2022-08-25T12:57:39;95514.72;;;32.75;35.19
73383;BME280;61600;48.126;11.542;2022-08-25T13:00:35;95510.03;;;32.88;35.35
73383;BME280;61600;48.126;11.542;2022-08-25T13:03:48;95511.56;;;32.92;34.93
73383;BME280;61600;48.126;11.542;2022-08-25T13:06:46;95503.69;;;33.03;35.13
73383;BME280;61600;48.126;11.542;2022-08-25T13:09:44;95490.88;;;33.38;35.25
73383;BME280;61600;48.126;11.542;2022-08-25T13:12:21;95488.38;;;33.40;33.79
73383;BME280;61600;48.126;11.542;2022-08-25T13:14:53;95485.97;;;33.23;34.07
73383;BME280;61600;48.126;11.542;2022-08-25T13:17:28;95497.09;;;31.74;37.32
73383;BME280;61600;48.126;11.542;2022-08-25T13:20:24;95495.72;;;31.02;38.19
73383;BME280;61600;48.126;11.542;2022-08-25T13:22:52;95496.88;;;31.35;38.00
73383;BME280;61600;48.126;11.542;2022-08-25T13:25:23;95500.06;;;31.90;36.87
73383;BME280;61600;48.126;11.542;2022-08-25T13:27:53;95493.75;;;32.09;36.18
73383;BME280;61600;48.126;11.542;2022-08-25T13:30:29;95490.47;;;32.34;35.94
73383;BME280;61600;48.126;11.542;2022-08-25T13:32:56;95493.31;;;32.77;35.13
73383;BME280;61600;48.126;11.542;2022-08-25T13:35:28;95482.50;;;33.15;34.92
73383;BME280;61600;48.126;11.542;2022-08-25T13:38:14;95476.72;;;33.02;34.64
73383;BME280;61600;48.126;11.542;2022-08-25T13:40:40;95482.34;;;33.02;34.16
73383;BME280;61600;48.126;11.542;2022-08-25T13:43:10;95478.16;;;33.66;34.43
73383;BME280;61600;48.126;11.542;2022-08-25T13:45:42;95471.13;;;33.54;33.51
73383;BME280;61600;48.126;11.542;2022-08-25T13:48:10;95480.66;;;33.60;33.44
73383;BME280;61600;48.126;11.542;2022-08-25T13:50:40;95475.16;;;33.73;32.84
73383;BME280;61600;48.126;11.542;2022-08-25T13:53:15;95470.56;;;33.63;33.31
73383;BME280;61600;48.126;11.542;2022-08-25T13:55:58;95478.78;;;33.74;32.45
73383;BME280;61600;48.126;11.542;2022-08-25T13:58:25;95471.88;;;33.03;33.76
73383;BME280;61600;48.126;11.542;2022-08-25T14:01:09;95476.59;;;32.00;35.30
73383;BME280;61600;48.126;11.542;2022-08-25T14:03:39;95473.09;;;32.62;35.20
73383;BME280;61600;48.126;11.542;2022-08-25T14:08:39;95475.53;;;32.60;34.45
73383;BME280;61600;48.126;11.542;2022-08-25T14:11:10;95467.91;;;33.00;34.96
73383;BME280;61600;48.126;11.542;2022-08-25T14:13:36;95470.97;;;33.45;33.21
73383;BME280;61600;48.126;11.542;2022-08-25T14:16:17;95467.78;;;34.56;32.14
73383;BME280;61600;48.126;11.542;2022-08-25T14:19:13;95460.94;;;34.86;31.08
73383;BME280;61600;48.126;11.542;2022-08-25T14:21:42;95466.59;;;34.41;31.10
73383;BME280;61600;48.126;11.542;2022-08-25T14:24:09;95451.66;;;35.15;30.34
73383;BME280;61600;48.126;11.542;2022-08-25T14:26:39;95467.84;;;35.14;30.30
73383;BME280;61600;48.126;11.542;2022-08-25T14:29:05;95456.69;;;35.07;30.39
73383;BME280;61600;48.126;11.542;2022-08-25T14:31:35;95451.34;;;35.50;29.85
73383;BME280;61600;48.126;11.542;2022-08-25T14:34:09;95446.28;;;36.09;28.71
73383;BME280;61600;48.126;11.542;2022-08-25T14:36:37;95446.69;;;36.67;28.24
73383;BME280;61600;48.126;11.542;2022-08-25T14:39:03;95449.50;;;36.67;28.44
73383;BME280;61600;48.126;11.542;2022-08-25T14:41:33;95445.31;;;37.36;27.93